KAFN/AFN METAR and TAF weather

Enter ICAO airport designator
Station Type Date Time Source
KAFN METAR 2018/10/19 15:52 UTC NOAA

KAFN 191552Z AUTO 26009KT 10SM CLR 09/01 A3011 RMK AO2 SLP209 T00890011


Station Type Date Time Source
KAFN Decoded METAR 2018/10/19 15:52 UTC NOAA

JAFFREY MUNI-SILVER RANCH, NH, United States (KAFN) 42-48N 72-00W 313M
Oct 19, 2018 - 11:52 AM EDT / 2018.10.19 1552 UTC
Wind: from the W (260 degrees) at 10 MPH (9 KT):0
Visibility: 10 mile(s):0
Sky conditions: clear
Temperature: 48.0 F (8.9 C)
Dew Point: 34.0 F (1.1 C)
Relative Humidity: 58%
Pressure (altimeter): 30.11 in. Hg (1019 hPa)
ob: KAFN 191552Z AUTO 26009KT 10SM CLR 09/01 A3011 RMK AO2 SLP209 T00890011
cycle: 16

Station Type Date Time Source
KAFN TAF UTC NOAA

Error!


Example: see airport list